JAL3131 RJGG-RJCK
Flight info
| Callsign | JAL3131 |
|---|---|
| Flight time | 1h 27m |
| Altitude | 37000 |
| Route | KCC Y312 GTC Y124 MQE Y111 CRANE |
| Aircraft | B738/M-SDE2E3FGHIRWXY/LB1 |
Departure
| Time | 2026-05-07 09:28 |
|---|---|
| Airport | Chubu Centrair International Airport (RJGG) |
Arrival
| Time | 2026-05-07 10:56 |
|---|---|
| Airport | Kushiro Airport (RJCK) |
| Time | Latitude | Longitude | Altitude | Speed | Heading |
|---|---|---|---|---|---|
| 2026-05-07 09:15 | 34.85922 | 136.81053 | 27 ft | 0 kts | 173° |
| 2026-05-07 09:19 | 34.85923 | 136.81053 | 28 ft | 2 kts | 173° |
| 2026-05-07 09:19 | 34.85937 | 136.81050 | 28 ft | 2 kts | 172° |
| 2026-05-07 09:19 | 34.85950 | 136.81048 | 28 ft | 2 kts | 171° |
| 2026-05-07 09:20 | 34.85964 | 136.81045 | 28 ft | 2 kts | 171° |
| 2026-05-07 09:20 | 34.85978 | 136.81043 | 28 ft | 2 kts | 173° |
| 2026-05-07 09:20 | 34.85989 | 136.81042 | 28 ft | 1 kts | 186° |
| 2026-05-07 09:20 | 34.85996 | 136.81043 | 27 ft | 1 kts | 212° |
| 2026-05-07 09:21 | 34.86000 | 136.81047 | 27 ft | 1 kts | 240° |
| 2026-05-07 09:21 | 34.86003 | 136.81054 | 27 ft | 1 kts | 252° |
| 2026-05-07 09:21 | 34.86004 | 136.81060 | 27 ft | 1 kts | 257° |
| 2026-05-07 09:21 | 34.86005 | 136.81063 | 28 ft | 0 kts | 258° |
| 2026-05-07 09:23 | 34.86003 | 136.81050 | 27 ft | 3 kts | 258° |
| 2026-05-07 09:23 | 34.85995 | 136.81006 | 27 ft | 7 kts | 258° |
| 2026-05-07 09:24 | 34.85985 | 136.80931 | 27 ft | 11 kts | 261° |
| 2026-05-07 09:24 | 34.86017 | 136.80854 | 27 ft | 13 kts | 344° |
| 2026-05-07 09:24 | 34.86115 | 136.80829 | 27 ft | 16 kts | 348° |
| 2026-05-07 09:24 | 34.86234 | 136.80799 | 27 ft | 19 kts | 348° |
| 2026-05-07 09:25 | 34.86371 | 136.80766 | 28 ft | 21 kts | 349° |
| 2026-05-07 09:25 | 34.86523 | 136.80730 | 28 ft | 23 kts | 349° |
| 2026-05-07 09:25 | 34.86684 | 136.80692 | 27 ft | 23 kts | 348° |
| 2026-05-07 09:25 | 34.86839 | 136.80654 | 27 ft | 23 kts | 349° |
| 2026-05-07 09:26 | 34.86991 | 136.80617 | 27 ft | 22 kts | 349° |
| 2026-05-07 09:26 | 34.87138 | 136.80582 | 27 ft | 21 kts | 349° |
| 2026-05-07 09:26 | 34.87281 | 136.80548 | 27 ft | 21 kts | 349° |
| 2026-05-07 09:26 | 34.87330 | 136.80459 | 27 ft | 14 kts | 258° |
| 2026-05-07 09:27 | 34.87310 | 136.80337 | 26 ft | 16 kts | 258° |
| 2026-05-07 09:27 | 34.87273 | 136.80210 | 25 ft | 15 kts | 215° |
| 2026-05-07 09:27 | 34.87213 | 136.80209 | 26 ft | 6 kts | 169° |
| 2026-05-07 09:28 | 34.86948 | 136.80272 | 28 ft | 73 kts | 169° |
| 2026-05-07 09:28 | 34.86242 | 136.80441 | 25 ft | 131 kts | 169° |
| 2026-05-07 09:28 | 34.85226 | 136.80706 | 247 ft | 158 kts | 167° |
| 2026-05-07 09:28 | 34.84133 | 136.80973 | 836 ft | 164 kts | 173° |
| 2026-05-07 09:29 | 34.83050 | 136.80629 | 1497 ft | 163 kts | 219° |
| 2026-05-07 09:29 | 34.82459 | 136.79420 | 2001 ft | 181 kts | 259° |
| 2026-05-07 09:29 | 34.82686 | 136.77809 | 2270 ft | 210 kts | 292° |
| 2026-05-07 09:29 | 34.83313 | 136.76092 | 2474 ft | 232 kts | 292° |
| 2026-05-07 09:30 | 34.83976 | 136.74237 | 2714 ft | 252 kts | 292° |
| 2026-05-07 09:30 | 34.84721 | 136.72251 | 3302 ft | 262 kts | 301° |
| 2026-05-07 09:30 | 34.85988 | 136.70704 | 4231 ft | 261 kts | 328° |
| 2026-05-07 09:30 | 34.87710 | 136.69936 | 5015 ft | 268 kts | 346° |
| 2026-05-07 09:31 | 34.89562 | 136.69499 | 5730 ft | 274 kts | 347° |
| 2026-05-07 09:31 | 34.91459 | 136.69066 | 6470 ft | 279 kts | 346° |
| 2026-05-07 09:31 | 34.93379 | 136.68629 | 7172 ft | 284 kts | 349° |
| 2026-05-07 09:31 | 34.95373 | 136.68830 | 7842 ft | 296 kts | 17° |
| 2026-05-07 09:32 | 34.97238 | 136.69963 | 8542 ft | 303 kts | 28° |
| 2026-05-07 09:32 | 34.99060 | 136.71291 | 9213 ft | 309 kts | 30° |
| 2026-05-07 09:32 | 35.00910 | 136.72675 | 9896 ft | 314 kts | 30° |
| 2026-05-07 09:32 | 35.02798 | 136.74087 | 10386 ft | 326 kts | 30° |
| 2026-05-07 09:33 | 35.04806 | 136.75577 | 10543 ft | 349 kts | 29° |
| 2026-05-07 09:33 | 35.06943 | 136.77152 | 10791 ft | 366 kts | 29° |
| 2026-05-07 09:33 | 35.09143 | 136.78769 | 11338 ft | 372 kts | 29° |
| 2026-05-07 09:33 | 35.11371 | 136.80404 | 12037 ft | 374 kts | 29° |
| 2026-05-07 09:34 | 35.13605 | 136.82043 | 12736 ft | 376 kts | 29° |
| 2026-05-07 09:34 | 35.15861 | 136.83695 | 13409 ft | 380 kts | 28° |
| 2026-05-07 09:34 | 35.18143 | 136.85366 | 14032 ft | 383 kts | 28° |
| 2026-05-07 09:34 | 35.20440 | 136.87050 | 14594 ft | 387 kts | 28° |
| 2026-05-07 09:35 | 35.22758 | 136.88750 | 15179 ft | 391 kts | 28° |
| 2026-05-07 09:35 | 35.25107 | 136.90473 | 15770 ft | 396 kts | 28° |
| 2026-05-07 09:35 | 35.27475 | 136.92226 | 16361 ft | 400 kts | 29° |
| 2026-05-07 09:35 | 35.29835 | 136.94071 | 16919 ft | 405 kts | 31° |
| 2026-05-07 09:36 | 35.32197 | 136.95975 | 17477 ft | 410 kts | 31° |
| 2026-05-07 09:36 | 35.34585 | 136.97920 | 18025 ft | 415 kts | 31° |
| 2026-05-07 09:36 | 35.36182 | 136.99221 | 18366 ft | 417 kts | 31° |
| 2026-05-07 09:36 | 35.38612 | 137.01199 | 18870 ft | 420 kts | 31° |
| 2026-05-07 09:37 | 35.41055 | 137.03182 | 19411 ft | 422 kts | 31° |
| 2026-05-07 09:37 | 35.43508 | 137.05167 | 19936 ft | 425 kts | 31° |
| 2026-05-07 09:37 | 35.45985 | 137.07170 | 20443 ft | 428 kts | 31° |
| 2026-05-07 09:37 | 35.48483 | 137.09188 | 20940 ft | 431 kts | 30° |
| 2026-05-07 09:38 | 35.50998 | 137.11220 | 21451 ft | 434 kts | 30° |
| 2026-05-07 09:38 | 35.53529 | 137.13267 | 21946 ft | 437 kts | 30° |
| 2026-05-07 09:38 | 35.56071 | 137.15323 | 22425 ft | 440 kts | 30° |
| 2026-05-07 09:38 | 35.58636 | 137.17400 | 22896 ft | 443 kts | 31° |
| 2026-05-07 09:39 | 35.61217 | 137.19492 | 23344 ft | 446 kts | 31° |
| 2026-05-07 09:39 | 35.63820 | 137.21603 | 23723 ft | 450 kts | 31° |
| 2026-05-07 09:39 | 35.66438 | 137.23728 | 24060 ft | 453 kts | 31° |
| 2026-05-07 09:39 | 35.69080 | 137.25875 | 24418 ft | 457 kts | 31° |
| 2026-05-07 09:40 | 35.71739 | 137.28037 | 24771 ft | 459 kts | 31° |
| 2026-05-07 09:40 | 35.74414 | 137.30214 | 25138 ft | 462 kts | 31° |
| 2026-05-07 09:40 | 35.77107 | 137.32408 | 25480 ft | 465 kts | 31° |
| 2026-05-07 09:40 | 35.79811 | 137.34612 | 25814 ft | 469 kts | 31° |
| 2026-05-07 09:41 | 35.82504 | 137.36809 | 26136 ft | 472 kts | 31° |
| 2026-05-07 09:41 | 35.85252 | 137.39052 | 26459 ft | 475 kts | 31° |
| 2026-05-07 09:41 | 35.88017 | 137.41312 | 26777 ft | 478 kts | 31° |
| 2026-05-07 09:41 | 35.90791 | 137.43581 | 27105 ft | 481 kts | 32° |
| 2026-05-07 09:42 | 35.93589 | 137.45872 | 27421 ft | 484 kts | 32° |
| 2026-05-07 09:42 | 35.96404 | 137.48178 | 27725 ft | 487 kts | 32° |
| 2026-05-07 09:42 | 35.99233 | 137.50499 | 28021 ft | 489 kts | 32° |
| 2026-05-07 09:42 | 36.02078 | 137.52834 | 28311 ft | 492 kts | 32° |
| 2026-05-07 09:43 | 36.04929 | 137.55176 | 28590 ft | 494 kts | 32° |
| 2026-05-07 09:43 | 36.07803 | 137.57539 | 28862 ft | 497 kts | 32° |
| 2026-05-07 09:43 | 36.10695 | 137.59918 | 29108 ft | 500 kts | 32° |
| 2026-05-07 09:43 | 36.13602 | 137.62313 | 29329 ft | 503 kts | 32° |
| 2026-05-07 09:44 | 36.16515 | 137.64714 | 29595 ft | 505 kts | 32° |
| 2026-05-07 09:44 | 36.19450 | 137.67136 | 29862 ft | 507 kts | 32° |
| 2026-05-07 09:44 | 36.22395 | 137.69568 | 30109 ft | 510 kts | 32° |
| 2026-05-07 09:44 | 36.25353 | 137.72014 | 30307 ft | 512 kts | 32° |
| 2026-05-07 09:45 | 36.28316 | 137.74466 | 30538 ft | 514 kts | 32° |
| 2026-05-07 09:45 | 36.31296 | 137.76934 | 30751 ft | 515 kts | 31° |
| 2026-05-07 09:45 | 36.34277 | 137.79407 | 31065 ft | 514 kts | 32° |
| 2026-05-07 09:45 | 36.37248 | 137.81873 | 31402 ft | 513 kts | 32° |
| 2026-05-07 09:46 | 36.40206 | 137.84330 | 31699 ft | 512 kts | 32° |
| 2026-05-07 09:46 | 36.43168 | 137.86793 | 32014 ft | 512 kts | 31° |
| 2026-05-07 09:46 | 36.46126 | 137.89253 | 32347 ft | 511 kts | 31° |
| 2026-05-07 09:46 | 36.49081 | 137.91708 | 32666 ft | 510 kts | 31° |
| 2026-05-07 09:47 | 36.52054 | 137.94115 | 32975 ft | 510 kts | 30° |
| 2026-05-07 09:47 | 36.55036 | 137.96488 | 33258 ft | 510 kts | 30° |
| 2026-05-07 09:47 | 36.58031 | 137.98869 | 33545 ft | 511 kts | 30° |
| 2026-05-07 09:47 | 36.61017 | 138.01260 | 33868 ft | 510 kts | 30° |
| 2026-05-07 09:48 | 36.63994 | 138.03657 | 34165 ft | 509 kts | 30° |
| 2026-05-07 09:48 | 36.66966 | 138.06053 | 34421 ft | 509 kts | 30° |
| 2026-05-07 09:48 | 36.69930 | 138.08443 | 34652 ft | 509 kts | 30° |
| 2026-05-07 09:48 | 36.72900 | 138.10841 | 34918 ft | 508 kts | 30° |
| 2026-05-07 09:49 | 36.75823 | 138.13203 | 35204 ft | 507 kts | 30° |
| 2026-05-07 09:49 | 36.78779 | 138.15594 | 35422 ft | 507 kts | 30° |
| 2026-05-07 09:49 | 36.81741 | 138.17991 | 35655 ft | 506 kts | 30° |
| 2026-05-07 09:49 | 36.84692 | 138.20381 | 35913 ft | 505 kts | 30° |
| 2026-05-07 09:50 | 36.87634 | 138.22768 | 36173 ft | 504 kts | 30° |
| 2026-05-07 09:50 | 36.90574 | 138.25154 | 36401 ft | 504 kts | 30° |
| 2026-05-07 09:50 | 36.93513 | 138.27542 | 36587 ft | 505 kts | 30° |
| 2026-05-07 09:50 | 36.96457 | 138.29936 | 36784 ft | 505 kts | 30° |
| 2026-05-07 09:51 | 36.99401 | 138.32333 | 36977 ft | 505 kts | 30° |
| 2026-05-07 09:51 | 37.05308 | 138.37148 | 36968 ft | 507 kts | 30° |
| 2026-05-07 09:52 | 37.11192 | 138.41955 | 36960 ft | 504 kts | 30° |
| 2026-05-07 09:52 | 37.17041 | 138.46742 | 36962 ft | 501 kts | 30° |
| 2026-05-07 09:53 | 37.22876 | 138.51525 | 36954 ft | 500 kts | 30° |
| 2026-05-07 09:53 | 37.28694 | 138.56289 | 36947 ft | 499 kts | 30° |
| 2026-05-07 09:54 | 37.34532 | 138.61036 | 36956 ft | 500 kts | 30° |
| 2026-05-07 09:54 | 37.40385 | 138.65810 | 36965 ft | 502 kts | 30° |
| 2026-05-07 09:55 | 37.46254 | 138.70608 | 36963 ft | 505 kts | 30° |
| 2026-05-07 09:55 | 37.52155 | 138.75442 | 36942 ft | 506 kts | 30° |
| 2026-05-07 09:56 | 37.58066 | 138.80294 | 36944 ft | 509 kts | 30° |
| 2026-05-07 09:56 | 37.64002 | 138.85177 | 36943 ft | 510 kts | 30° |
| 2026-05-07 09:57 | 37.69954 | 138.90083 | 36936 ft | 511 kts | 30° |
| 2026-05-07 09:57 | 37.75906 | 138.94999 | 36931 ft | 512 kts | 30° |
| 2026-05-07 09:58 | 37.81869 | 138.99932 | 36918 ft | 512 kts | 30° |
| 2026-05-07 09:58 | 37.87820 | 139.04867 | 36916 ft | 512 kts | 30° |
| 2026-05-07 09:59 | 37.93774 | 139.09814 | 36916 ft | 511 kts | 31° |
| 2026-05-07 09:59 | 37.99198 | 139.15679 | 36920 ft | 514 kts | 44° |
| 2026-05-07 10:00 | 38.04089 | 139.22298 | 36916 ft | 515 kts | 46° |
| 2026-05-07 10:00 | 38.08930 | 139.28910 | 36921 ft | 514 kts | 45° |
| 2026-05-07 10:01 | 38.13832 | 139.35507 | 36925 ft | 514 kts | 45° |
| 2026-05-07 10:01 | 38.18757 | 139.42091 | 36937 ft | 513 kts | 45° |
| 2026-05-07 10:02 | 38.23680 | 139.48677 | 36934 ft | 513 kts | 45° |
| 2026-05-07 10:02 | 38.28592 | 139.55269 | 36943 ft | 515 kts | 45° |
| 2026-05-07 10:03 | 38.33531 | 139.61914 | 36940 ft | 518 kts | 45° |
| 2026-05-07 10:03 | 38.38482 | 139.68591 | 36938 ft | 519 kts | 45° |
| 2026-05-07 10:04 | 38.43442 | 139.75296 | 36943 ft | 518 kts | 45° |
| 2026-05-07 10:04 | 38.48389 | 139.82000 | 36907 ft | 518 kts | 45° |
| 2026-05-07 10:05 | 38.53316 | 139.88686 | 36892 ft | 517 kts | 45° |
| 2026-05-07 10:05 | 38.58233 | 139.95373 | 36933 ft | 516 kts | 45° |
| 2026-05-07 10:06 | 38.67831 | 140.08470 | 36924 ft | 517 kts | 45° |
| 2026-05-07 10:07 | 38.72753 | 140.15207 | 36939 ft | 517 kts | 45° |
| 2026-05-07 10:07 | 38.77661 | 140.21942 | 36937 ft | 518 kts | 45° |
| 2026-05-07 10:08 | 38.82570 | 140.28690 | 36938 ft | 518 kts | 45° |
| 2026-05-07 10:08 | 38.87437 | 140.35518 | 36942 ft | 519 kts | 46° |
| 2026-05-07 10:09 | 38.92251 | 140.42424 | 36946 ft | 519 kts | 46° |
| 2026-05-07 10:09 | 38.97059 | 140.49314 | 36935 ft | 517 kts | 46° |
| 2026-05-07 10:10 | 39.01869 | 140.56195 | 36987 ft | 518 kts | 46° |
| 2026-05-07 10:10 | 39.06800 | 140.62997 | 36941 ft | 520 kts | 44° |
| 2026-05-07 10:11 | 39.11781 | 140.69755 | 36941 ft | 520 kts | 45° |
| 2026-05-07 10:11 | 39.16728 | 140.76556 | 36926 ft | 520 kts | 45° |
| 2026-05-07 10:12 | 39.21653 | 140.83355 | 36921 ft | 519 kts | 45° |
| 2026-05-07 10:12 | 39.26576 | 140.90164 | 36910 ft | 517 kts | 45° |
| 2026-05-07 10:13 | 39.31471 | 140.96946 | 36898 ft | 516 kts | 45° |
| 2026-05-07 10:13 | 39.36359 | 141.03732 | 36888 ft | 515 kts | 44° |
| 2026-05-07 10:14 | 39.41228 | 141.10508 | 36889 ft | 514 kts | 44° |
| 2026-05-07 10:14 | 39.45766 | 141.17679 | 36897 ft | 516 kts | 53° |
| 2026-05-07 10:15 | 39.49820 | 141.25354 | 36890 ft | 517 kts | 54° |
| 2026-05-07 10:15 | 39.53829 | 141.33033 | 36901 ft | 518 kts | 54° |
| 2026-05-07 10:16 | 39.57905 | 141.40735 | 36923 ft | 519 kts | 54° |
| 2026-05-07 10:16 | 39.62010 | 141.48451 | 36933 ft | 519 kts | 53° |
| 2026-05-07 10:17 | 39.66116 | 141.56183 | 36941 ft | 521 kts | 53° |
| 2026-05-07 10:17 | 39.70222 | 141.63941 | 36944 ft | 522 kts | 53° |
| 2026-05-07 10:18 | 39.74340 | 141.71745 | 36922 ft | 525 kts | 54° |
| 2026-05-07 10:18 | 39.78468 | 141.79589 | 36918 ft | 526 kts | 54° |
| 2026-05-07 10:19 | 39.82595 | 141.87449 | 36928 ft | 526 kts | 54° |
| 2026-05-07 10:19 | 39.86721 | 141.95325 | 36904 ft | 527 kts | 53° |
| 2026-05-07 10:20 | 39.90929 | 142.03127 | 36909 ft | 526 kts | 52° |
| 2026-05-07 10:20 | 39.95197 | 142.10879 | 36903 ft | 526 kts | 52° |
| 2026-05-07 10:21 | 39.99443 | 142.18629 | 36900 ft | 525 kts | 52° |
| 2026-05-07 10:21 | 40.03668 | 142.26399 | 36896 ft | 524 kts | 52° |
| 2026-05-07 10:22 | 40.07869 | 142.34161 | 36903 ft | 523 kts | 52° |
| 2026-05-07 10:22 | 40.12064 | 142.41928 | 36904 ft | 523 kts | 52° |
| 2026-05-07 10:23 | 40.16252 | 142.49699 | 36908 ft | 522 kts | 52° |
| 2026-05-07 10:23 | 40.20419 | 142.57449 | 36906 ft | 521 kts | 52° |
| 2026-05-07 10:24 | 40.24579 | 142.65205 | 36914 ft | 521 kts | 52° |
| 2026-05-07 10:24 | 40.28736 | 142.72976 | 36909 ft | 521 kts | 52° |
| 2026-05-07 10:25 | 40.32886 | 142.80754 | 36915 ft | 520 kts | 52° |
| 2026-05-07 10:25 | 40.37025 | 142.88529 | 36910 ft | 520 kts | 52° |
| 2026-05-07 10:26 | 40.41165 | 142.96325 | 36917 ft | 520 kts | 52° |
| 2026-05-07 10:26 | 40.45294 | 143.04121 | 36915 ft | 520 kts | 52° |
| 2026-05-07 10:27 | 40.49423 | 143.11937 | 36916 ft | 521 kts | 52° |
| 2026-05-07 10:27 | 40.53542 | 143.19753 | 36915 ft | 521 kts | 52° |
| 2026-05-07 10:28 | 40.58136 | 143.26908 | 36923 ft | 509 kts | 33° |
| 2026-05-07 10:28 | 40.61024 | 143.29536 | 36913 ft | 501 kts | 22° |
| 2026-05-07 10:28 | 40.64147 | 143.31442 | 36905 ft | 489 kts | 9° |
| 2026-05-07 10:29 | 40.70674 | 143.33915 | 36927 ft | 485 kts | 7° |
| 2026-05-07 10:29 | 40.77148 | 143.36303 | 36922 ft | 487 kts | 8° |
| 2026-05-07 10:30 | 40.86933 | 143.40054 | 36923 ft | 489 kts | 8° |
| 2026-05-07 10:30 | 40.93474 | 143.42609 | 36911 ft | 490 kts | 8° |
| 2026-05-07 10:31 | 40.96805 | 143.43909 | 36419 ft | 497 kts | 9° |
| 2026-05-07 10:31 | 41.00071 | 143.45186 | 35874 ft | 494 kts | 9° |
| 2026-05-07 10:31 | 41.03367 | 143.46479 | 35238 ft | 494 kts | 9° |
| 2026-05-07 10:31 | 41.06664 | 143.47771 | 34592 ft | 494 kts | 10° |
| 2026-05-07 10:32 | 41.09954 | 143.49062 | 33922 ft | 495 kts | 10° |
| 2026-05-07 10:32 | 41.13259 | 143.50358 | 33122 ft | 495 kts | 11° |
| 2026-05-07 10:32 | 41.16570 | 143.51658 | 32282 ft | 496 kts | 11° |
| 2026-05-07 10:32 | 41.19860 | 143.52954 | 31781 ft | 490 kts | 11° |
| 2026-05-07 10:33 | 41.23116 | 143.54239 | 31255 ft | 485 kts | 11° |
| 2026-05-07 10:33 | 41.26330 | 143.55508 | 30746 ft | 480 kts | 11° |
| 2026-05-07 10:33 | 41.29519 | 143.56767 | 30247 ft | 476 kts | 11° |
| 2026-05-07 10:33 | 41.32677 | 143.58014 | 29714 ft | 471 kts | 11° |
| 2026-05-07 10:34 | 41.35802 | 143.59249 | 29158 ft | 466 kts | 11° |
| 2026-05-07 10:34 | 41.38881 | 143.60467 | 28648 ft | 460 kts | 11° |
| 2026-05-07 10:34 | 41.41930 | 143.61675 | 28137 ft | 454 kts | 11° |
| 2026-05-07 10:34 | 41.44944 | 143.62870 | 27636 ft | 449 kts | 11° |
| 2026-05-07 10:35 | 41.47928 | 143.64053 | 27122 ft | 445 kts | 11° |
| 2026-05-07 10:35 | 41.50883 | 143.65225 | 26643 ft | 441 kts | 11° |
| 2026-05-07 10:35 | 41.53802 | 143.66385 | 26155 ft | 437 kts | 11° |
| 2026-05-07 10:35 | 41.56704 | 143.67538 | 25675 ft | 433 kts | 11° |
| 2026-05-07 10:36 | 41.59582 | 143.68684 | 25204 ft | 430 kts | 11° |
| 2026-05-07 10:36 | 41.61477 | 143.69440 | 24849 ft | 428 kts | 9° |
| 2026-05-07 10:36 | 41.64328 | 143.70579 | 24361 ft | 429 kts | 8° |
| 2026-05-07 10:36 | 41.67192 | 143.71718 | 23869 ft | 429 kts | 8° |
| 2026-05-07 10:37 | 41.70065 | 143.72862 | 23339 ft | 433 kts | 8° |
| 2026-05-07 10:37 | 41.72973 | 143.74020 | 22692 ft | 436 kts | 8° |
| 2026-05-07 10:37 | 41.75876 | 143.75184 | 22180 ft | 434 kts | 9° |
| 2026-05-07 10:37 | 41.78751 | 143.76341 | 21683 ft | 431 kts | 9° |
| 2026-05-07 10:38 | 41.81612 | 143.77494 | 21191 ft | 428 kts | 9° |
| 2026-05-07 10:38 | 41.84452 | 143.78638 | 20708 ft | 425 kts | 9° |
| 2026-05-07 10:38 | 41.87273 | 143.79775 | 20234 ft | 422 kts | 9° |
| 2026-05-07 10:38 | 41.90075 | 143.80903 | 19745 ft | 419 kts | 9° |
| 2026-05-07 10:39 | 41.92855 | 143.82023 | 19261 ft | 417 kts | 9° |
| 2026-05-07 10:39 | 41.95627 | 143.83140 | 18777 ft | 415 kts | 10° |
| 2026-05-07 10:39 | 41.98384 | 143.84253 | 18301 ft | 412 kts | 10° |
| 2026-05-07 10:39 | 42.01126 | 143.85360 | 17777 ft | 410 kts | 10° |
| 2026-05-07 10:40 | 42.03841 | 143.86458 | 17283 ft | 406 kts | 10° |
| 2026-05-07 10:40 | 42.06537 | 143.87551 | 16806 ft | 403 kts | 11° |
| 2026-05-07 10:40 | 42.09209 | 143.88634 | 16339 ft | 399 kts | 11° |
| 2026-05-07 10:40 | 42.11858 | 143.89707 | 15881 ft | 396 kts | 11° |
| 2026-05-07 10:41 | 42.14483 | 143.90773 | 15430 ft | 392 kts | 11° |
| 2026-05-07 10:41 | 42.17087 | 143.91830 | 14978 ft | 389 kts | 11° |
| 2026-05-07 10:41 | 42.19664 | 143.92878 | 14537 ft | 386 kts | 11° |
| 2026-05-07 10:41 | 42.22234 | 143.93923 | 14090 ft | 383 kts | 12° |
| 2026-05-07 10:42 | 42.24782 | 143.94960 | 13644 ft | 381 kts | 12° |
| 2026-05-07 10:42 | 42.27299 | 143.95986 | 13273 ft | 375 kts | 12° |
| 2026-05-07 10:42 | 42.29789 | 143.97003 | 12827 ft | 372 kts | 12° |
| 2026-05-07 10:42 | 42.32254 | 143.98006 | 12432 ft | 367 kts | 12° |
| 2026-05-07 10:43 | 42.34644 | 143.98966 | 12134 ft | 360 kts | 12° |
| 2026-05-07 10:43 | 42.37037 | 143.99918 | 11722 ft | 358 kts | 12° |
| 2026-05-07 10:43 | 42.39418 | 144.00865 | 11310 ft | 355 kts | 12° |
| 2026-05-07 10:43 | 42.41781 | 144.01806 | 10893 ft | 353 kts | 12° |
| 2026-05-07 10:44 | 42.44147 | 144.02751 | 10660 ft | 345 kts | 12° |
| 2026-05-07 10:44 | 42.46412 | 144.03659 | 10508 ft | 335 kts | 12° |
| 2026-05-07 10:44 | 42.48615 | 144.04542 | 10360 ft | 326 kts | 12° |
| 2026-05-07 10:44 | 42.50732 | 144.05390 | 10216 ft | 317 kts | 12° |
| 2026-05-07 10:45 | 42.52845 | 144.06238 | 10080 ft | 309 kts | 12° |
| 2026-05-07 10:45 | 42.54888 | 144.07058 | 9853 ft | 305 kts | 12° |
| 2026-05-07 10:45 | 42.56904 | 144.07770 | 9554 ft | 302 kts | 8° |
| 2026-05-07 10:45 | 42.58952 | 144.08339 | 9253 ft | 299 kts | 6° |
| 2026-05-07 10:46 | 42.60990 | 144.08869 | 8952 ft | 297 kts | 6° |
| 2026-05-07 10:46 | 42.63010 | 144.09396 | 8653 ft | 295 kts | 6° |
| 2026-05-07 10:46 | 42.65022 | 144.09929 | 8353 ft | 294 kts | 6° |
| 2026-05-07 10:46 | 42.67021 | 144.10466 | 8067 ft | 292 kts | 6° |
| 2026-05-07 10:47 | 42.69011 | 144.11006 | 7770 ft | 291 kts | 6° |
| 2026-05-07 10:47 | 42.70984 | 144.11544 | 7474 ft | 289 kts | 6° |
| 2026-05-07 10:47 | 42.72954 | 144.12084 | 7185 ft | 288 kts | 6° |
| 2026-05-07 10:47 | 42.74909 | 144.12620 | 6915 ft | 285 kts | 6° |
| 2026-05-07 10:48 | 42.76846 | 144.13153 | 6629 ft | 284 kts | 6° |
| 2026-05-07 10:48 | 42.78780 | 144.13685 | 6344 ft | 283 kts | 6° |
| 2026-05-07 10:48 | 42.80702 | 144.14215 | 6050 ft | 281 kts | 6° |
| 2026-05-07 10:48 | 42.82615 | 144.14509 | 5736 ft | 272 kts | 349° |
| 2026-05-07 10:49 | 42.84443 | 144.14063 | 5581 ft | 262 kts | 343° |
| 2026-05-07 10:49 | 42.86202 | 144.13570 | 5441 ft | 254 kts | 343° |
| 2026-05-07 10:49 | 42.87908 | 144.13106 | 5331 ft | 246 kts | 343° |
| 2026-05-07 10:49 | 42.89565 | 144.12665 | 5227 ft | 239 kts | 344° |
| 2026-05-07 10:50 | 42.91172 | 144.12242 | 5124 ft | 231 kts | 343° |
| 2026-05-07 10:50 | 42.92733 | 144.11833 | 4937 ft | 228 kts | 343° |
| 2026-05-07 10:50 | 42.94283 | 144.11424 | 4713 ft | 226 kts | 344° |
| 2026-05-07 10:50 | 42.95822 | 144.11014 | 4482 ft | 225 kts | 344° |
| 2026-05-07 10:51 | 42.97358 | 144.10606 | 4245 ft | 224 kts | 344° |
| 2026-05-07 10:51 | 42.98887 | 144.10200 | 4002 ft | 223 kts | 345° |
| 2026-05-07 10:51 | 43.00408 | 144.09796 | 3773 ft | 222 kts | 344° |
| 2026-05-07 10:51 | 43.01911 | 144.09397 | 3569 ft | 217 kts | 344° |
| 2026-05-07 10:52 | 43.03374 | 144.09011 | 3325 ft | 211 kts | 345° |
| 2026-05-07 10:52 | 43.04799 | 144.08633 | 3055 ft | 206 kts | 344° |
| 2026-05-07 10:52 | 43.06195 | 144.08283 | 2836 ft | 202 kts | 347° |
| 2026-05-07 10:52 | 43.07617 | 144.08349 | 2492 ft | 211 kts | 12° |
| 2026-05-07 10:53 | 43.08899 | 144.09276 | 2219 ft | 209 kts | 41° |
| 2026-05-07 10:53 | 43.09737 | 144.10850 | 1921 ft | 202 kts | 69° |
| 2026-05-07 10:53 | 43.10030 | 144.12621 | 1650 ft | 188 kts | 93° |
| 2026-05-07 10:53 | 43.09839 | 144.14279 | 1458 ft | 164 kts | 115° |
| 2026-05-07 10:54 | 43.09360 | 144.15604 | 1295 ft | 154 kts | 129° |
| 2026-05-07 10:54 | 43.08785 | 144.16843 | 1104 ft | 149 kts | 134° |
| 2026-05-07 10:54 | 43.07973 | 144.17595 | 916 ft | 141 kts | 166° |
| 2026-05-07 10:54 | 43.07032 | 144.17920 | 763 ft | 139 kts | 171° |
| 2026-05-07 10:55 | 43.06098 | 144.18320 | 549 ft | 140 kts | 166° |
| 2026-05-07 10:55 | 43.05163 | 144.18754 | 373 ft | 143 kts | 165° |
| 2026-05-07 10:55 | 43.04285 | 144.19196 | 322 ft | 118 kts | 159° |
| 2026-05-07 10:55 | 43.03655 | 144.19529 | 310 ft | 75 kts | 158° |
| 2026-05-07 10:56 | 43.03488 | 144.19698 | 309 ft | 20 kts | 75° |
| 2026-05-07 10:56 | 43.03582 | 144.19810 | 303 ft | 20 kts | 349° |
| 2026-05-07 10:56 | 43.03713 | 144.19743 | 309 ft | 20 kts | 338° |
| 2026-05-07 10:56 | 43.03840 | 144.19675 | 310 ft | 19 kts | 339° |
| 2026-05-07 10:57 | 43.03963 | 144.19611 | 313 ft | 19 kts | 339° |
| 2026-05-07 10:57 | 43.04082 | 144.19550 | 316 ft | 18 kts | 339° |
| 2026-05-07 10:57 | 43.04196 | 144.19489 | 318 ft | 17 kts | 339° |
| 2026-05-07 10:57 | 43.04307 | 144.19431 | 323 ft | 17 kts | 339° |
| 2026-05-07 10:58 | 43.04414 | 144.19377 | 323 ft | 16 kts | 339° |
| 2026-05-07 10:58 | 43.04460 | 144.19390 | 326 ft | 5 kts | 64° |
| 2026-05-07 10:58 | 43.04477 | 144.19442 | 324 ft | 7 kts | 69° |
| 2026-05-07 10:58 | 43.04495 | 144.19513 | 322 ft | 9 kts | 68° |
| 2026-05-07 10:59 | 43.04500 | 144.19530 | 321 ft | 0 kts | 69° |